Portada
METAR-TAF:

METAR-TAF

Aeropuertos :

Aeropuerto de Resolute Bay

Resolute, Nunavut, Canadá

latitud: 74-43N, longitud: 094-59W, altitud: 67 m

Observación

El informe se hizo hace 1 hora y 2 minutos, a las 05:00 UTC
Viento 18 kt del norte-noroeste
Temperatura -32°C
Humedad 67%
Presión 1014 hPa
Visibilidad: 1.0 km
Cielo despejado
cristales de hielo, neblina

METAR: CYRB 160500Z 33018KT 5/8SM IC BR SKC M32/M36 A2994 RMK IC6 SLP153

Hora: 00:02 (06:02 UTC)

Pronóstico

El informe se hizo hace 22 minutos, a las 05:40 UTC
Pronóstico válido del 16 a las 06 UTC al 17 a las 06 UTC
Viento 18 kt del norte-noroeste con ráfagas de 28 kt
Visibilidad: 0.8 km
Cielo despejado
cristales de hielo, Ventisca alta de nieve
Temporalmente
del 16 a las 06 UTC al 17 a las 06 UTC
Visibilidad: 4.8 km
cristales de hielo, neblina

TAF: CYRB 160540Z 1606/1706 33018G28KT 1/2SM IC BLSN SKC TEMPO 1606/1706 3SM IC BR RMK NXT FCST BY 161200Z

Observaciones y pronósticos meteorológicos de más de 4000 aeropuertos (mensajes METAR y TAF).

Los puntos amarillos y rojos representan las estaciones disponibles.

Ponga el ratón en el punto deseado para ver el nombre de la estación.

Haga clic para ver las observaciones y los pronósticos meteorológicos.

Para cambiar el mapa : haga clic en los botones verdes con una cruz de color negro para hacer un zoom, en el botón verde con un guión para alejar o en las flechas verdes para mapas adyacentes.


METAR-TAF: